Locarno Monti, Switzerland

7:01 PM CEST on July 30, 2016 (GMT +0200)
Lugano | | Change Station

Elev 912 ft 46.00 °N, 8.91 °E | Updated 11 minutes ago

Scattered Clouds
Scattered Clouds
82 °F
Feels Like 86 °F
N
2
Wind Variable Wind from Variable

Today
High -- | Low -- °F
--% Chance of Precip.
Yesterday
High -- | Low -- °F
Precip. -- in
Pressure 29.95 in
Visibility 5.6 miles
Clouds Few 4000 ft
Scattered Clouds 12000 ft
Heat Index 86 °F
Dew Point 70 °F
Humidity 66%
Rainfall 0.00 in
Snow Depth Not available.
6:04 AM 8:57 PM
Waning Crescent, 12% visible
METAR LSZA 301650Z VRB02KT 9000 VCSH FEW040 SCT120 28/21 Q1014 NOSIG
Pressure 29.95 in
Visibility 5.6 miles
Clouds Few 4000 ft
Scattered Clouds 12000 ft
Heat Index 86 °F
Dew Point 70 °F
Humidity 66%
Rainfall 0.00 in
Snow Depth Not available.
6:04 AM 8:57 PM
Waning Crescent, 12% visible
METAR LSZA 301650Z VRB02KT 9000 VCSH FEW040 SCT120 28/21 Q1014 NOSIG

10-Day Weather Forecast

×

Almanac

Astronomy

Jul. 30, 2016 Rise Set
Actual Time
Civil Twilight
Nautical Twilight
Astronomical Twilight
Moon
Length of Visible Light
Length of Day
Tomorrow will be .
, % of the Moon is Illuminated

Today's Extremes

Country Highs Country Lows

Community

WunderPhotos

Upload Photos

1,928,598 photos uploaded!

WunderBlog® & News

Nearby

Air Quality

  Air Quality AQ Index Pollutant
Not available.

Snow Depth

Station Depth Elevation

Earthquake Activity

City Distance Mag. Time & Date
Minimum magnitude displayed is 2.5.

Coastal Water Temperatures

Place Temperature

Stations

Nearby Weather Stations

Station Location Temp. Windchill Dew Point Humidity Wind Precip. Elev Updated Type